createdAt,value
2019-05-29T00:00:07.797Z,8.9
2019-05-29T00:01:09.906Z,8.9
2019-05-29T00:02:08.305Z,8.9
2019-05-29T00:04:10.579Z,8.8
2019-05-29T00:05:12.284Z,8.8
2019-05-29T00:07:14.682Z,8.7
2019-05-29T00:08:16.077Z,8.7
2019-05-29T00:09:18.413Z,8.7
2019-05-29T00:12:21.211Z,8.8
2019-05-29T00:14:27.295Z,8.8
2019-05-29T00:15:24.078Z,8.8
2019-05-29T00:16:25.470Z,8.8
2019-05-29T00:18:28.000Z,8.9
2019-05-29T00:20:30.545Z,8.9
2019-05-29T00:22:33.152Z,8.9
2019-05-29T00:24:35.688Z,8.9
2019-05-29T00:27:39.508Z,8.9
2019-05-29T00:28:40.904Z,8.9
2019-05-29T00:29:42.308Z,8.9
2019-05-29T00:30:43.703Z,8.9
2019-05-29T00:31:45.093Z,8.9
2019-05-29T00:32:45.887Z,8.9
2019-05-29T00:35:49.546Z,9
2019-05-29T00:36:50.940Z,8.9
2019-05-29T00:37:52.364Z,8.9
2019-05-29T00:38:53.730Z,8.9
2019-05-29T00:39:55.147Z,8.9
2019-05-29T00:41:57.668Z,8.9
2019-05-29T00:42:58.425Z,8.9
2019-05-29T00:43:59.815Z,8.9
2019-05-29T00:45:01.238Z,8.9
2019-05-29T00:48:04.634Z,8.8
2019-05-29T00:50:07.901Z,8.8
2019-05-29T00:51:08.888Z,8.9
2019-05-29T00:52:10.015Z,8.9
2019-05-29T00:54:12.467Z,8.8
2019-05-29T00:55:12.630Z,8.9
2019-05-29T00:56:14.624Z,8.8
2019-05-29T00:57:15.304Z,8.8
2019-05-29T01:03:20.774Z,8.8
2019-05-29T01:04:22.170Z,8.8
2019-05-29T01:06:24.701Z,8.9
2019-05-29T01:07:26.099Z,8.9
2019-05-29T01:08:27.504Z,8.9
2019-05-29T01:09:28.911Z,8.9
2019-05-29T01:10:30.324Z,8.9
2019-05-29T01:11:31.729Z,8.9
2019-05-29T01:12:33.102Z,8.9
2019-05-29T01:14:49.131Z,8.9
2019-05-29T01:15:35.883Z,8.9
2019-05-29T01:16:37.289Z,8.9
2019-05-29T01:17:38.685Z,8.9
2019-05-29T01:18:40.083Z,8.9
2019-05-29T01:20:42.619Z,8.9
2019-05-29T01:21:44.076Z,8.9
2019-05-29T01:22:45.435Z,8.8
2019-05-29T01:23:46.207Z,8.9
2019-05-29T01:24:47.601Z,8.9
2019-05-29T01:30:54.721Z,8.9
2019-05-29T01:33:57.731Z,8.8
2019-05-29T01:34:59.138Z,8.8
2019-05-29T01:37:01.865Z,8.8
2019-05-29T01:38:03.257Z,8.8
2019-05-29T01:39:04.652Z,8.8
2019-05-29T01:40:18.998Z,8.8
2019-05-29T01:41:07.271Z,8.8
2019-05-29T01:42:08.663Z,8.8
2019-05-29T01:44:09.780Z,8.7
2019-05-29T01:45:10.407Z,8.7
2019-05-29T01:46:11.839Z,8.7
2019-05-29T01:47:13.313Z,8.8
2019-05-29T01:49:15.986Z,8.8
2019-05-29T01:50:17.662Z,8.8
2019-05-29T01:52:19.640Z,8.8
2019-05-29T01:53:20.056Z,8.8
2019-05-29T01:54:21.657Z,8.8
2019-05-29T01:56:23.872Z,8.7
2019-05-29T01:57:24.291Z,8.8
2019-05-29T01:58:25.685Z,8.8
2019-05-29T01:59:28.087Z,8.8
2019-05-29T02:00:28.617Z,8.8
2019-05-29T02:02:31.133Z,8.7
2019-05-29T02:03:31.702Z,8.7
2019-05-29T02:04:32.465Z,8.8
2019-05-29T02:05:33.863Z,8.7
2019-05-29T02:06:35.274Z,8.7
2019-05-29T02:08:37.811Z,8.7
2019-05-29T02:12:42.615Z,8.7
2019-05-29T02:13:44.016Z,8.7
2019-05-29T02:14:44.606Z,8.7
2019-05-29T02:17:48.297Z,8.8
2019-05-29T02:18:49.693Z,8.7
2019-05-29T02:19:51.087Z,8.8
2019-05-29T02:20:52.480Z,8.8
2019-05-29T02:21:53.901Z,8.8
2019-05-29T02:22:55.303Z,8.8
2019-05-29T02:23:56.693Z,8.8
2019-05-29T02:24:57.457Z,8.8
2019-05-29T02:25:58.858Z,8.7
2019-05-29T02:27:00.285Z,8.8
2019-05-29T02:28:01.680Z,8.8
2019-05-29T02:29:03.073Z,8.8
2019-05-29T02:30:04.472Z,8.8
2019-05-29T02:31:05.147Z,8.8
2019-05-29T02:32:06.575Z,8.8
2019-05-29T02:33:07.972Z,8.8
2019-05-29T02:34:09.365Z,8.8
2019-05-29T02:37:11.837Z,8.8
2019-05-29T02:39:13.909Z,8.7
2019-05-29T02:40:14.547Z,8.7
2019-05-29T02:41:15.828Z,8.7
2019-05-29T02:42:16.625Z,8.7
2019-05-29T02:43:19.201Z,8.7
2019-05-29T02:45:21.449Z,8.7
2019-05-29T02:46:21.679Z,8.8
2019-05-29T02:50:26.399Z,8.8
2019-05-29T02:51:28.288Z,8.7
2019-05-29T02:53:28.756Z,8.8
2019-05-29T02:54:32.087Z,8.7
2019-05-29T02:55:31.145Z,8.7
2019-05-29T02:56:32.526Z,8.7
2019-05-29T02:57:33.461Z,8.8
2019-05-29T02:58:34.886Z,8.7
2019-05-29T02:59:36.274Z,8.8
2019-05-29T03:00:37.672Z,8.8
2019-05-29T03:01:39.072Z,8.8
2019-05-29T03:02:40.456Z,8.7
2019-05-29T03:03:41.888Z,8.8
2019-05-29T03:04:43.287Z,8.8
2019-05-29T03:05:43.535Z,8.8
2019-05-29T03:06:44.927Z,8.7
2019-05-29T03:07:46.330Z,8.7
2019-05-29T03:11:51.136Z,8.8
2019-05-29T03:12:52.164Z,8.7
2019-05-29T03:13:53.575Z,8.8
2019-05-29T03:14:54.974Z,8.7
2019-05-29T03:16:09.234Z,8.8
2019-05-29T03:16:56.797Z,8.8
2019-05-29T03:17:58.192Z,8.8
2019-05-29T03:20:00.760Z,8.7
2019-05-29T03:21:02.155Z,8.7
2019-05-29T03:22:03.549Z,8.7
2019-05-29T03:24:06.089Z,8.7
2019-05-29T03:25:07.487Z,8.7
2019-05-29T03:33:16.214Z,8.7
2019-05-29T03:34:17.604Z,8.7
2019-05-29T03:35:19.001Z,8.6
2019-05-29T03:36:19.875Z,8.7
2019-05-29T03:40:23.144Z,8.7
2019-05-29T03:41:23.977Z,8.7
2019-05-29T03:42:26.372Z,8.7
2019-05-29T03:45:30.755Z,8.7
2019-05-29T03:49:26.804Z,8.7
2019-05-29T03:52:30.229Z,8.7
2019-05-29T03:53:31.579Z,8.7
2019-05-29T03:54:32.995Z,8.8
2019-05-29T03:55:31.958Z,8.7
2019-05-29T03:56:34.628Z,8.7
2019-05-29T03:57:35.743Z,8.7
2019-05-29T03:58:35.781Z,8.8
2019-05-29T03:59:37.326Z,8.7
2019-05-29T04:00:45.363Z,8.7
2019-05-29T04:01:37.881Z,8.7
2019-05-29T04:02:39.291Z,8.7
2019-05-29T04:03:40.220Z,8.7
2019-05-29T04:05:42.768Z,8.7
2019-05-29T04:06:47.204Z,8.7
2019-05-29T04:07:44.925Z,8.7
2019-05-29T04:08:46.323Z,8.6
2019-05-29T04:11:49.359Z,8.5
2019-05-29T04:12:50.755Z,8.5
2019-05-29T04:13:52.155Z,8.6
2019-05-29T04:14:53.575Z,8.6
2019-05-29T04:15:54.957Z,8.6
2019-05-29T04:19:59.599Z,8.6
2019-05-29T04:24:04.380Z,8.6
2019-05-29T04:25:05.800Z,8.6
2019-05-29T04:26:07.241Z,8.7
2019-05-29T04:27:08.638Z,8.7
2019-05-29T04:28:10.028Z,8.7
2019-05-29T04:29:11.425Z,8.7
2019-05-29T04:30:12.420Z,8.7
2019-05-29T04:31:12.994Z,8.7
2019-05-29T04:35:17.806Z,8.8
2019-05-29T04:36:19.196Z,8.7
2019-05-29T04:37:20.601Z,8.7
2019-05-29T04:38:21.997Z,8.7
2019-05-29T04:39:22.795Z,8.7
2019-05-29T04:41:24.499Z,8.7
2019-05-29T04:42:25.925Z,8.7
2019-05-29T04:43:26.578Z,8.7
2019-05-29T04:44:28.787Z,8.8
2019-05-29T04:45:30.698Z,8.7
2019-05-29T04:46:31.723Z,8.7
2019-05-29T04:47:35.153Z,8.7
2019-05-29T04:48:34.082Z,8.6
2019-05-29T04:49:35.736Z,8.7
2019-05-29T04:51:37.153Z,8.6
2019-05-29T04:52:38.233Z,8.6
2019-05-29T04:53:39.701Z,8.6
2019-05-29T04:54:40.189Z,8.6
2019-05-29T04:55:40.661Z,8.6
2019-05-29T04:56:42.084Z,8.6
2019-05-29T04:57:43.471Z,8.7
2019-05-29T04:58:44.062Z,8.6
2019-05-29T04:59:45.449Z,8.6
2019-05-29T05:00:58.447Z,8.6
2019-05-29T05:01:46.840Z,8.6
2019-05-29T05:02:48.242Z,8.6
2019-05-29T05:04:50.813Z,8.7
2019-05-29T05:05:52.204Z,8.7
2019-05-29T05:06:53.619Z,8.6
2019-05-29T05:07:55.008Z,8.6
2019-05-29T05:08:56.455Z,8.6
2019-05-29T05:09:57.849Z,8.6
2019-05-29T05:13:00.885Z,8.6
2019-05-29T05:14:02.279Z,8.6
2019-05-29T05:15:03.679Z,8.7
2019-05-29T05:16:05.068Z,8.7
2019-05-29T05:17:06.487Z,8.7
2019-05-29T05:18:07.358Z,8.7
2019-05-29T05:19:08.746Z,8.7
2019-05-29T05:20:09.907Z,8.7
2019-05-29T05:23:12.951Z,8.7
2019-05-29T05:24:14.357Z,8.7
2019-05-29T05:25:15.754Z,8.7
2019-05-29T05:27:18.301Z,8.7
2019-05-29T05:28:19.685Z,8.6
2019-05-29T05:29:21.095Z,8.6
2019-05-29T05:30:22.486Z,8.5
2019-05-29T05:31:23.250Z,8.5
2019-05-29T05:32:24.659Z,8.5
2019-05-29T05:35:27.733Z,8.4
2019-05-29T05:38:30.885Z,8.4
2019-05-29T05:39:32.741Z,8.3
2019-05-29T05:40:36.868Z,8.2
2019-05-29T05:41:33.361Z,8.2
2019-05-29T05:42:34.837Z,8.2
2019-05-29T05:45:37.663Z,8.3
2019-05-29T05:46:39.167Z,8.3
2019-05-29T05:47:53.397Z,8.3
2019-05-29T05:48:41.464Z,8.3
2019-05-29T05:49:42.062Z,8.3
2019-05-29T05:55:48.488Z,8.4
2019-05-29T05:56:52.899Z,8.4
2019-05-29T05:57:51.158Z,8.4
2019-05-29T05:58:53.062Z,8.4
2019-05-29T05:59:53.411Z,8.4
2019-05-29T06:00:54.798Z,8.3
2019-05-29T06:01:55.675Z,8.3
2019-05-29T06:09:03.901Z,8.4
2019-05-29T06:10:05.285Z,8.3
2019-05-29T06:11:06.676Z,8.3
2019-05-29T06:12:07.561Z,8.3
2019-05-29T06:13:08.947Z,8.3
2019-05-29T06:14:10.379Z,8.4
2019-05-29T06:15:11.774Z,8.4
2019-05-29T06:16:13.173Z,8.4
2019-05-29T06:18:21.373Z,8.4
2019-05-29T06:20:18.475Z,8.4
2019-05-29T06:21:19.875Z,8.4
2019-05-29T06:22:20.634Z,8.4
2019-05-29T06:23:22.053Z,8.4
2019-05-29T06:24:23.458Z,8.4
2019-05-29T06:25:24.864Z,8.4
2019-05-29T06:26:26.238Z,8.4
2019-05-29T06:27:26.985Z,8.5
2019-05-29T06:28:27.759Z,8.4
2019-05-29T06:30:30.274Z,8.5
2019-05-29T06:32:31.603Z,8.5
2019-05-29T06:33:33.404Z,8.5
2019-05-29T06:34:33.570Z,8.5
2019-05-29T06:35:35.826Z,8.5
2019-05-29T06:38:37.885Z,8.5
2019-05-29T06:39:39.590Z,8.5
2019-05-29T06:40:40.314Z,8.6
2019-05-29T06:41:41.994Z,8.6
2019-05-29T06:42:41.966Z,8.6
2019-05-29T06:43:42.384Z,8.6
2019-05-29T06:44:46.129Z,8.6
2019-05-29T06:45:44.956Z,8.6
2019-05-29T06:46:46.360Z,8.7
2019-05-29T06:47:47.752Z,8.7
2019-05-29T06:48:59.206Z,8.7
2019-05-29T06:49:50.289Z,8.7
2019-05-29T06:50:52.712Z,8.7
2019-05-29T06:52:52.800Z,8.8
2019-05-29T06:53:54.218Z,8.8
2019-05-29T06:56:57.951Z,8.7
2019-05-29T06:57:59.346Z,8.8
2019-05-29T06:59:00.871Z,8.8
2019-05-29T07:00:01.400Z,8.8
2019-05-29T07:03:04.510Z,8.8
2019-05-29T07:04:11.663Z,8.8
2019-05-29T07:05:06.873Z,8.8
2019-05-29T07:06:08.408Z,8.8
2019-05-29T07:07:08.839Z,8.9
2019-05-29T07:08:18.885Z,8.9
2019-05-29T07:09:11.428Z,8.9
2019-05-29T07:13:15.600Z,8.9
2019-05-29T07:14:16.999Z,8.9
2019-05-29T07:17:20.082Z,8.9
2019-05-29T07:18:21.574Z,9
2019-05-29T07:19:26.747Z,9
2019-05-29T07:20:24.185Z,9
2019-05-29T07:21:25.586Z,9
2019-05-29T07:22:26.174Z,8.9
2019-05-29T07:23:26.930Z,8.9
2019-05-29T07:24:28.354Z,8.9
2019-05-29T07:25:29.749Z,9
2019-05-29T07:26:31.145Z,9
2019-05-29T07:27:31.953Z,9.1
2019-05-29T07:30:35.074Z,9
2019-05-29T07:33:38.926Z,9.1
2019-05-29T07:34:50.971Z,9
2019-05-29T07:35:39.982Z,8.9
2019-05-29T07:36:41.906Z,8.9
2019-05-29T07:40:45.497Z,8.8
2019-05-29T07:48:52.633Z,9
2019-05-29T07:49:54.038Z,9
2019-05-29T07:51:56.216Z,8.9
2019-05-29T07:52:57.678Z,8.9
2019-05-29T07:53:58.454Z,8.9
2019-05-29T07:54:59.854Z,9
2019-05-29T07:56:01.296Z,9
2019-05-29T07:59:04.792Z,9.2
2019-05-29T08:00:06.180Z,9.1
2019-05-29T08:04:11.278Z,9.2
2019-05-29T08:05:12.672Z,9.2
2019-05-29T08:07:15.240Z,9.3
2019-05-29T08:08:16.636Z,9.3
2019-05-29T08:09:18.023Z,9.3
2019-05-29T08:12:21.724Z,9.3
2019-05-29T08:13:23.132Z,9.2
2019-05-29T08:14:23.911Z,9.1
2019-05-29T08:17:27.591Z,9
2019-05-29T08:18:29.043Z,8.9
2019-05-29T08:19:30.442Z,9
2019-05-29T08:20:31.827Z,9
2019-05-29T08:21:33.242Z,9
2019-05-29T08:22:35.031Z,9
2019-05-29T08:23:35.445Z,9.1
2019-05-29T08:24:36.211Z,9.1
2019-05-29T08:25:37.709Z,9.1
2019-05-29T08:27:40.538Z,9.2
2019-05-29T08:28:40.695Z,9.1
2019-05-29T08:29:42.556Z,9.1
2019-05-29T08:30:48.076Z,9.1
2019-05-29T08:31:44.709Z,9.2
2019-05-29T08:32:45.383Z,9.2
2019-05-29T08:33:46.790Z,9.2
2019-05-29T08:37:51.150Z,9.1
2019-05-29T08:40:53.851Z,9.2
2019-05-29T08:42:20.824Z,9.2
2019-05-29T08:42:55.782Z,9.1
2019-05-29T08:43:57.194Z,9.1
2019-05-29T08:44:57.939Z,9.1
2019-05-29T08:45:59.336Z,9.2
2019-05-29T08:47:09.388Z,9.2
2019-05-29T08:48:01.328Z,9.2
2019-05-29T08:50:17.079Z,9.3
2019-05-29T08:53:06.568Z,9.3
2019-05-29T08:54:22.838Z,9.3
2019-05-29T08:56:10.102Z,9.4
2019-05-29T08:58:12.640Z,9.5
2019-05-29T08:59:14.081Z,9.6
2019-05-29T09:00:15.464Z,9.7
2019-05-29T09:01:16.866Z,9.7
2019-05-29T09:02:18.288Z,9.8
2019-05-29T09:03:19.680Z,9.9
2019-05-29T09:05:21.578Z,10
2019-05-29T09:06:22.969Z,10
2019-05-29T09:08:25.533Z,10.2
2019-05-29T09:09:26.924Z,10.2
2019-05-29T09:10:28.327Z,10.2
2019-05-29T09:13:31.399Z,10.2
2019-05-29T09:14:32.796Z,10.2
2019-05-29T09:21:39.819Z,10.4
2019-05-29T09:22:41.244Z,10.5
2019-05-29T09:23:42.640Z,10.5
2019-05-29T09:24:44.038Z,10.5
2019-05-29T09:25:45.039Z,10.6
2019-05-29T09:26:46.711Z,10.6
2019-05-29T09:27:47.126Z,10.6
2019-05-29T09:28:48.530Z,10.6
2019-05-29T09:30:51.051Z,10.7
2019-05-29T09:32:53.595Z,10.8
2019-05-29T09:33:54.999Z,10.7
2019-05-29T09:34:56.398Z,10.8
2019-05-29T09:35:57.293Z,10.9
2019-05-29T09:36:58.754Z,10.8
2019-05-29T09:37:59.426Z,10.9
2019-05-29T09:39:00.830Z,10.8
2019-05-29T09:41:03.351Z,10.9
2019-05-29T09:42:04.757Z,10.9
2019-05-29T09:43:06.175Z,10.9
2019-05-29T09:44:07.570Z,10.8
2019-05-29T09:45:08.091Z,10.8
2019-05-29T09:46:08.843Z,10.8
2019-05-29T09:47:09.379Z,10.8
2019-05-29T09:48:10.868Z,10.8
2019-05-29T09:49:11.659Z,10.9
2019-05-29T09:50:12.392Z,10.9
2019-05-29T09:51:20.926Z,10.9
2019-05-29T09:52:14.421Z,11
2019-05-29T09:54:17.017Z,11
2019-05-29T09:55:17.551Z,11.1
2019-05-29T09:56:18.688Z,11.1
2019-05-29T09:57:20.085Z,11.1
2019-05-29T09:58:21.573Z,11.1
2019-05-29T09:59:22.994Z,11.2
2019-05-29T10:00:24.381Z,11.2
2019-05-29T10:01:25.997Z,11.2
2019-05-29T10:02:26.372Z,11.2
2019-05-29T10:04:28.936Z,11.2
2019-05-29T10:05:30.325Z,11.1
2019-05-29T10:06:31.443Z,11.1
2019-05-29T10:07:32.842Z,11
2019-05-29T10:08:34.238Z,11
2019-05-29T10:09:35.653Z,11
2019-05-29T10:10:37.051Z,11
2019-05-29T10:11:38.447Z,11
2019-05-29T10:12:39.839Z,11
2019-05-29T10:13:41.261Z,11
2019-05-29T10:14:42.668Z,11
2019-05-29T10:15:43.341Z,10.9
2019-05-29T10:16:44.127Z,10.9
2019-05-29T10:17:45.529Z,10.9
2019-05-29T10:21:50.477Z,10.9
2019-05-29T10:23:53.225Z,10.9
2019-05-29T10:24:56.214Z,10.9
2019-05-29T10:25:56.904Z,11
2019-05-29T10:26:57.399Z,11
2019-05-29T10:27:56.837Z,11
2019-05-29T10:29:07.089Z,11
2019-05-29T10:29:58.987Z,11
2019-05-29T10:31:03.606Z,11
2019-05-29T10:32:01.547Z,11
2019-05-29T10:33:02.941Z,10.9
2019-05-29T10:34:04.364Z,10.9
2019-05-29T10:35:05.750Z,10.9
2019-05-29T10:36:07.158Z,10.9
2019-05-29T10:37:08.180Z,11
2019-05-29T10:39:12.864Z,11
2019-05-29T10:42:13.708Z,11.1
2019-05-29T10:43:14.811Z,11.1
2019-05-29T10:44:15.959Z,11.1
2019-05-29T10:45:17.353Z,11.1
2019-05-29T10:46:18.764Z,11.1
2019-05-29T10:47:19.531Z,11.1
2019-05-29T10:48:20.924Z,11.1
2019-05-29T10:49:22.373Z,11.1
2019-05-29T10:50:23.849Z,11
2019-05-29T10:51:25.264Z,11.1
2019-05-29T10:52:25.905Z,11
2019-05-29T10:53:27.296Z,10.9
2019-05-29T10:54:28.732Z,10.9
2019-05-29T10:57:31.779Z,10.8
2019-05-29T10:58:47.832Z,10.8
2019-05-29T10:59:34.211Z,10.8
2019-05-29T11:00:38.518Z,10.7
2019-05-29T11:01:36.422Z,10.7
2019-05-29T11:03:38.976Z,10.6
2019-05-29T11:04:39.549Z,10.6
2019-05-29T11:05:40.448Z,10.7
2019-05-29T11:06:41.845Z,10.6
2019-05-29T11:07:42.477Z,10.5
2019-05-29T11:08:43.872Z,10.6
2019-05-29T11:09:46.723Z,10.6
2019-05-29T11:10:46.320Z,10.6
2019-05-29T11:11:48.361Z,10.5
2019-05-29T11:12:48.389Z,10.5
2019-05-29T11:13:48.752Z,10.5
2019-05-29T11:14:50.700Z,10.6
2019-05-29T11:15:51.028Z,10.6
2019-05-29T11:16:52.986Z,10.6
2019-05-29T11:17:53.311Z,10.6
2019-05-29T11:18:53.671Z,10.7
2019-05-29T11:19:55.602Z,10.7
2019-05-29T11:20:56.033Z,10.7
2019-05-29T11:22:01.540Z,10.7
2019-05-29T11:26:01.622Z,10.8
2019-05-29T11:27:02.931Z,10.8
2019-05-29T11:28:03.692Z,10.8
2019-05-29T11:29:05.098Z,10.8
2019-05-29T11:30:05.686Z,10.9
2019-05-29T11:31:06.565Z,10.9
2019-05-29T11:32:07.949Z,10.9
2019-05-29T11:33:09.342Z,11
2019-05-29T11:34:10.069Z,11
2019-05-29T11:38:14.415Z,11.1
2019-05-29T11:39:15.815Z,11.2
2019-05-29T11:40:17.249Z,11.2
2019-05-29T11:41:26.143Z,11.2
2019-05-29T11:42:27.132Z,11.3
2019-05-29T11:44:21.679Z,11.3
2019-05-29T11:45:23.102Z,11.2
2019-05-29T11:46:24.528Z,11.2
2019-05-29T11:47:25.940Z,11.2
2019-05-29T11:48:27.158Z,11.2
2019-05-29T11:49:28.559Z,11.2
2019-05-29T11:50:29.981Z,11.2
2019-05-29T11:51:31.391Z,11.2
2019-05-29T11:53:33.840Z,11.2
2019-05-29T11:54:35.243Z,11.2
2019-05-29T11:55:36.656Z,11.2
2019-05-29T11:58:39.410Z,11.2
2019-05-29T11:59:40.856Z,11.1
2019-05-29T12:00:42.258Z,11
2019-05-29T12:01:49.993Z,11
2019-05-29T12:02:44.382Z,11
2019-05-29T12:04:07.379Z,11
2019-05-29T12:05:47.232Z,11.1
2019-05-29T12:06:48.581Z,11.1
2019-05-29T12:07:49.338Z,11.1
2019-05-29T12:10:52.993Z,11
2019-05-29T12:12:53.362Z,11
2019-05-29T12:15:04.600Z,11
2019-05-29T12:15:55.923Z,11
2019-05-29T12:16:56.049Z,10.9
2019-05-29T12:23:18.161Z,10.7
2019-05-29T12:23:56.159Z,10.6
2019-05-29T12:24:58.555Z,10.6
2019-05-29T12:26:15.829Z,10.6
2019-05-29T12:29:09.000Z,10.6
2019-05-29T12:30:03.245Z,10.6
2019-05-29T12:31:03.682Z,10.6
2019-05-29T12:32:09.181Z,10.6
2019-05-29T12:35:08.077Z,10.6
2019-05-29T12:37:10.633Z,10.6
2019-05-29T12:38:12.040Z,10.6
2019-05-29T12:39:13.423Z,10.6
2019-05-29T12:40:14.828Z,10.6
2019-05-29T12:41:16.262Z,10.7
2019-05-29T12:42:17.287Z,10.7
2019-05-29T12:43:26.943Z,10.7
2019-05-29T12:44:19.453Z,10.8
2019-05-29T12:45:20.843Z,10.8
2019-05-29T12:46:22.271Z,10.8
2019-05-29T12:47:23.662Z,10.9
2019-05-29T12:48:25.060Z,10.8
2019-05-29T12:50:27.584Z,10.9
2019-05-29T12:52:29.306Z,10.8
2019-05-29T12:54:31.817Z,10.8
2019-05-29T12:55:33.232Z,10.8
2019-05-29T12:57:35.781Z,10.7
2019-05-29T12:58:37.158Z,10.6
2019-05-29T12:59:38.588Z,10.6
2019-05-29T13:00:39.195Z,10.5
2019-05-29T13:02:41.149Z,10.5
2019-05-29T13:03:45.153Z,10.5
2019-05-29T13:05:05.779Z,10.5
2019-05-29T13:05:44.187Z,10.5
2019-05-29T13:06:45.586Z,10.5
2019-05-29T13:07:47.013Z,10.5
2019-05-29T13:08:48.407Z,10.5
2019-05-29T13:09:49.628Z,10.5
2019-05-29T13:10:50.650Z,10.5
2019-05-29T13:11:51.252Z,10.5
2019-05-29T13:12:52.313Z,10.4
2019-05-29T13:13:52.788Z,10.4
2019-05-29T13:16:56.626Z,10.3
2019-05-29T13:18:02.240Z,10.2
2019-05-29T13:18:59.075Z,10.1
2019-05-29T13:20:05.450Z,10.1
2019-05-29T13:21:00.951Z,10.1
2019-05-29T13:22:01.675Z,10.1
2019-05-29T13:23:04.613Z,10.2
2019-05-29T13:24:05.267Z,10.2
2019-05-29T13:25:05.486Z,10.2
2019-05-29T13:26:06.312Z,10.2
2019-05-29T13:27:07.706Z,10.3
2019-05-29T13:28:09.125Z,10.3
2019-05-29T13:29:10.511Z,10.3
2019-05-29T13:30:11.913Z,10.3
2019-05-29T13:31:13.313Z,10.3
2019-05-29T13:32:14.737Z,10.3
2019-05-29T13:33:15.603Z,10.2
2019-05-29T13:34:17.008Z,10.2
2019-05-29T13:35:21.866Z,10.2
2019-05-29T13:37:21.019Z,10.3
2019-05-29T13:38:22.418Z,10.2
2019-05-29T13:39:23.816Z,10.2
2019-05-29T13:40:25.056Z,10.3
2019-05-29T13:42:27.597Z,10.2
2019-05-29T13:43:28.660Z,10.2
2019-05-29T13:44:30.070Z,10.2
2019-05-29T13:45:31.495Z,10.2
2019-05-29T13:46:32.861Z,10.2
2019-05-29T13:48:34.626Z,10.2
2019-05-29T13:49:36.035Z,10.2
2019-05-29T13:50:37.418Z,10.3
2019-05-29T13:53:40.594Z,10.2
2019-05-29T13:54:41.448Z,10.2
2019-05-29T13:56:43.988Z,10.2
2019-05-29T13:57:44.520Z,10.2
2019-05-29T14:01:49.337Z,10.2
2019-05-29T14:02:50.734Z,10.2
2019-05-29T14:03:51.641Z,10.1
2019-05-29T14:04:52.176Z,10.1
2019-05-29T14:06:54.773Z,10
2019-05-29T14:07:55.401Z,10
2019-05-29T14:08:56.851Z,9.9
2019-05-29T14:09:58.808Z,10
2019-05-29T14:10:59.229Z,10
2019-05-29T14:13:01.365Z,9.9
2019-05-29T14:14:04.023Z,9.9
2019-05-29T14:15:04.386Z,9.9
2019-05-29T14:16:04.179Z,9.9
2019-05-29T14:17:04.675Z,9.9
2019-05-29T14:18:07.003Z,9.9
2019-05-29T14:19:07.240Z,9.8
2019-05-29T14:21:09.762Z,9.8
2019-05-29T14:22:11.167Z,9.8
2019-05-29T14:23:12.591Z,9.8
2019-05-29T14:24:26.055Z,9.8
2019-05-29T14:25:14.234Z,9.8
2019-05-29T14:26:15.655Z,9.8
2019-05-29T14:27:17.048Z,9.8
2019-05-29T14:28:18.480Z,9.8
2019-05-29T14:30:21.010Z,9.8
2019-05-29T14:31:22.404Z,9.9
2019-05-29T14:32:28.091Z,9.8
2019-05-29T14:33:25.107Z,9.8
2019-05-29T14:34:25.964Z,9.8
2019-05-29T14:35:27.369Z,9.8
2019-05-29T14:36:28.835Z,9.7
2019-05-29T14:37:30.250Z,9.7
2019-05-29T14:38:31.681Z,9.7
2019-05-29T14:39:33.082Z,9.8
2019-05-29T14:40:34.474Z,9.8
2019-05-29T14:41:35.869Z,9.8
2019-05-29T14:43:38.418Z,9.8
2019-05-29T14:44:39.092Z,9.7
2019-05-29T14:45:40.483Z,9.6
2019-05-29T14:46:41.873Z,9.6
2019-05-29T14:47:43.270Z,9.6
2019-05-29T14:48:44.690Z,9.6
2019-05-29T14:49:45.267Z,9.5
2019-05-29T14:52:49.113Z,9.5
2019-05-29T14:53:50.513Z,9.4
2019-05-29T14:54:51.339Z,9.5
2019-05-29T14:55:52.748Z,9.5
2019-05-29T14:56:54.153Z,9.5
2019-05-29T14:57:55.655Z,9.5
2019-05-29T14:59:58.347Z,9.4
2019-05-29T15:00:59.560Z,9.4
2019-05-29T15:02:01.035Z,9.4
2019-05-29T15:03:03.200Z,9.4
2019-05-29T15:04:03.584Z,9.4
2019-05-29T15:07:05.821Z,9.5
2019-05-29T15:08:07.977Z,9.5
2019-05-29T15:09:08.261Z,9.4
2019-05-29T15:11:10.034Z,9.4
2019-05-29T15:14:12.953Z,9.4
2019-05-29T15:15:16.314Z,9.4
2019-05-29T15:16:15.171Z,9.4
2019-05-29T15:17:16.567Z,9.4
2019-05-29T15:18:19.049Z,9.4
2019-05-29T15:19:18.713Z,9.4
2019-05-29T15:20:19.253Z,9.4
2019-05-29T15:21:20.656Z,9.5
2019-05-29T15:22:22.065Z,9.5
2019-05-29T15:27:20.955Z,9.6
2019-05-29T15:28:21.715Z,9.7
2019-05-29T15:29:23.222Z,9.8
2019-05-29T15:30:24.611Z,9.9
2019-05-29T15:31:25.192Z,10
2019-05-29T15:35:30.015Z,10
2019-05-29T15:36:31.414Z,10.1
2019-05-29T15:37:32.821Z,10.1
2019-05-29T15:38:33.678Z,10.1
2019-05-29T15:39:36.153Z,10.1
2019-05-29T15:40:36.537Z,10.1
2019-05-29T15:41:37.956Z,10.2
2019-05-29T15:42:39.337Z,10.2
2019-05-29T15:43:40.731Z,10.3
2019-05-29T15:45:42.663Z,10.3
2019-05-29T15:46:43.202Z,10.3
2019-05-29T15:47:44.589Z,10.3
2019-05-29T15:51:48.780Z,10.3
2019-05-29T15:52:50.177Z,10.4
2019-05-29T15:53:51.583Z,10.5
2019-05-29T15:55:54.130Z,10.4
2019-05-29T15:56:54.600Z,10.5
2019-05-29T15:57:56.008Z,10.4
2019-05-29T15:58:56.782Z,10.4
2019-05-29T15:59:58.175Z,10.4
2019-05-29T16:00:59.605Z,10.4
2019-05-29T16:02:01.004Z,10.4
2019-05-29T16:03:02.495Z,10.4
2019-05-29T16:05:04.711Z,10.4
2019-05-29T16:06:05.266Z,10.4
2019-05-29T16:07:05.865Z,10.3
2019-05-29T16:08:07.941Z,10.4
2019-05-29T16:09:08.148Z,10.4
2019-05-29T16:10:08.391Z,10.4
2019-05-29T16:11:10.501Z,10.3
2019-05-29T16:12:10.849Z,10.4
2019-05-29T16:13:12.848Z,10.4
2019-05-29T16:14:13.127Z,10.4
2019-05-29T16:15:15.301Z,10.5
2019-05-29T16:16:15.588Z,10.5
2019-05-29T16:17:17.308Z,10.5
2019-05-29T16:18:26.310Z,10.5
2019-05-29T16:19:18.390Z,10.5
2019-05-29T16:24:23.108Z,10.5
2019-05-29T16:25:39.083Z,10.5
2019-05-29T16:26:25.912Z,10.5
2019-05-29T16:29:27.922Z,10.5
2019-05-29T16:30:29.371Z,10.5
2019-05-29T16:31:30.810Z,10.5
2019-05-29T16:35:37.387Z,10.4
2019-05-29T16:36:37.034Z,10.4
2019-05-29T16:37:38.431Z,10.4
2019-05-29T16:38:39.826Z,10.4
2019-05-29T16:41:42.606Z,10.3
2019-05-29T16:42:44.022Z,10.3
2019-05-29T16:43:45.436Z,10.3
2019-05-29T16:44:46.828Z,10.4
2019-05-29T16:45:48.258Z,10.3
2019-05-29T16:46:49.660Z,10.3
2019-05-29T16:47:51.154Z,10.3
2019-05-29T16:48:51.611Z,10.2
2019-05-29T16:49:52.404Z,10.2
2019-05-29T16:50:53.819Z,10.2
2019-05-29T16:51:55.226Z,10.2
2019-05-29T16:52:56.626Z,10.2
2019-05-29T16:53:58.023Z,10.2
2019-05-29T16:54:59.427Z,10.2
2019-05-29T16:57:01.145Z,10.2
2019-05-29T16:58:02.541Z,10.2
2019-05-29T16:59:03.948Z,10.2
2019-05-29T17:02:06.982Z,10.2
2019-05-29T17:04:08.557Z,10.2
2019-05-29T17:05:09.932Z,10.2
2019-05-29T17:06:10.934Z,10.2
2019-05-29T17:07:12.347Z,10.1
2019-05-29T17:08:14.030Z,10.1
2019-05-29T17:09:14.553Z,10.1
2019-05-29T17:10:14.698Z,10.1
2019-05-29T17:11:16.360Z,10.1
2019-05-29T17:13:18.643Z,10.1
2019-05-29T17:14:18.852Z,10.1
2019-05-29T17:15:20.540Z,10
2019-05-29T17:16:20.976Z,10
2019-05-29T17:20:25.532Z,9.8
2019-05-29T17:21:26.960Z,9.7
2019-05-29T17:26:32.905Z,9.7
2019-05-29T17:27:34.296Z,9.6
2019-05-29T17:28:35.691Z,9.6
2019-05-29T17:29:37.085Z,9.6
2019-05-29T17:30:41.414Z,9.6
2019-05-29T17:31:38.544Z,9.6
2019-05-29T17:33:41.063Z,9.6
2019-05-29T17:34:42.460Z,9.6
2019-05-29T17:35:43.846Z,9.7
2019-05-29T17:40:49.153Z,9.6
2019-05-29T17:41:50.588Z,9.5
2019-05-29T17:42:51.984Z,9.5
2019-05-29T17:43:53.385Z,9.5
2019-05-29T17:44:54.812Z,9.5
2019-05-29T17:45:56.202Z,9.5
2019-05-29T17:46:57.612Z,9.5
2019-05-29T17:47:58.306Z,9.5
2019-05-29T17:54:04.751Z,9.4
2019-05-29T17:55:06.245Z,9.4
2019-05-29T17:57:11.442Z,9.4
2019-05-29T17:58:09.236Z,9.4
2019-05-29T18:00:11.990Z,9.4
2019-05-29T18:01:12.441Z,9.4
2019-05-29T18:02:13.293Z,9.4
2019-05-29T18:03:15.954Z,9.3
2019-05-29T18:04:16.199Z,9.3
2019-05-29T18:05:18.429Z,9.3
2019-05-29T18:06:18.814Z,9.3
2019-05-29T18:07:20.596Z,9.3
2019-05-29T18:09:24.638Z,9.3
2019-05-29T18:11:25.144Z,9.3
2019-05-29T18:12:25.050Z,9.3
2019-05-29T18:13:25.495Z,9.3
2019-05-29T18:14:27.504Z,9.3
2019-05-29T18:15:27.992Z,9.3
2019-05-29T18:18:31.683Z,9.3
2019-05-29T18:19:33.076Z,9.2
2019-05-29T18:20:34.480Z,9.2
2019-05-29T18:21:35.234Z,9.2
2019-05-29T18:22:36.666Z,9.1
2019-05-29T18:23:38.058Z,9.2
2019-05-29T18:24:39.451Z,9.2
2019-05-29T18:25:40.852Z,9.2
2019-05-29T18:26:46.688Z,9.2
2019-05-29T18:27:42.880Z,9.2
2019-05-29T18:28:44.276Z,9.2
2019-05-29T18:29:45.699Z,9.2
2019-05-29T18:30:47.161Z,9.1
2019-05-29T18:31:48.193Z,9.1
2019-05-29T18:32:49.630Z,9.1
2019-05-29T18:37:55.573Z,9.1
2019-05-29T18:38:56.969Z,9
2019-05-29T18:39:58.364Z,9
2019-05-29T18:40:59.896Z,8.9
2019-05-29T18:42:00.692Z,8.9
2019-05-29T18:43:02.119Z,8.9
2019-05-29T18:44:03.510Z,8.9
2019-05-29T18:45:18.750Z,8.8
2019-05-29T18:46:06.276Z,8.8
2019-05-29T18:49:14.290Z,8.8
2019-05-29T18:50:11.377Z,8.9
2019-05-29T18:51:12.795Z,8.9
2019-05-29T18:53:14.674Z,8.9
2019-05-29T18:54:15.761Z,8.9
2019-05-29T18:55:16.698Z,8.9
2019-05-29T18:56:17.895Z,8.9
2019-05-29T18:57:19.093Z,8.9
2019-05-29T18:58:20.124Z,8.8
2019-05-29T18:59:21.454Z,8.8
2019-05-29T19:00:23.317Z,8.9
2019-05-29T19:01:23.851Z,8.9
2019-05-29T19:02:25.051Z,8.9